Time;durP1;ratioP1;P1;durP2;ratioP2;P2;SDS_P1;SDS_P2;PMS_P1;PMS_P2;Temp;Humidity;BMP_temperature;BMP_pressure;BME280_temperature;BME280_humidity;BME280_pressure;Samples;Min_cycle;Max_cycle;Signal;HPM_P1;HPM_P2
2022/05/15 00:02:19;;;;;;;26.65;19.08;;;;;;;8.75;84.73;99102.53;4186723;28;20040;-70
2022/05/15 00:04:20;;;;;;;27.27;18.83;;;;;;;8.73;84.20;99105.63;4191220;28;20037;-70
2022/05/15 00:06:20;;;;;;;25.08;18.33;;;;;;;8.68;84.72;99114.16;4186806;28;20472;-70
2022/05/15 00:08:21;;;;;;;29.95;21.38;;;;;;;8.70;82.70;99106.34;4186168;28;20017;-70
2022/05/15 00:10:22;;;;;;;31.63;22.20;;;;;;;8.67;83.39;99109.78;4185947;28;20036;-70
2022/05/15 00:12:22;;;;;;;32.85;21.85;;;;;;;8.64;82.33;99109.69;4188215;28;20082;-70
2022/05/15 00:14:23;;;;;;;39.17;24.27;;;;;;;8.60;83.26;99112.34;4186317;28;20134;-70
2022/05/15 00:16:24;;;;;;;49.20;31.92;;;;;;;8.59;82.73;99105.22;4186828;28;20147;-70
2022/05/15 00:18:25;;;;;;;59.63;36.20;;;;;;;8.60;82.94;99112.34;4185879;28;20522;-70
2022/05/15 00:20:25;;;;;;;59.60;39.33;;;;;;;8.55;83.77;99112.59;4188116;28;20036;-70
2022/05/15 00:22:26;;;;;;;61.28;40.13;;;;;;;8.54;83.25;99108.25;4190157;28;20032;-70
2022/05/15 00:24:28;;;;;;;54.92;35.33;;;;;;;8.50;83.59;99106.50;4190108;28;20051;-70
2022/05/15 00:26:28;;;;;;;52.63;35.95;;;;;;;8.49;84.75;99113.97;4186877;28;20044;-70
2022/05/15 00:28:28;;;;;;;56.60;36.70;;;;;;;8.39;85.92;99114.47;4185787;28;20039;-70
2022/05/15 00:30:29;;;;;;;52.08;33.55;;;;;;;8.32;85.86;99115.03;4186313;28;20901;-69
2022/05/15 00:32:29;;;;;;;50.50;32.22;;;;;;;8.25;86.52;99114.00;4190710;28;20035;-70
2022/05/15 00:34:30;;;;;;;45.63;31.50;;;;;;;8.20;85.96;99114.25;4200935;28;20070;-70
2022/05/15 00:36:31;;;;;;;46.83;30.55;;;;;;;8.17;86.85;99110.22;4194346;28;20020;-70
2022/05/15 00:38:31;;;;;;;45.85;29.20;;;;;;;8.11;87.65;99122.66;4185694;28;20029;-70
2022/05/15 00:40:34;;;;;;;40.95;27.52;;;;;;;8.05;87.36;99111.03;4186060;28;20074;-70
2022/05/15 00:42:35;;;;;;;38.55;26.25;;;;;;;8.01;87.78;99107.38;4189808;28;20044;-70
2022/05/15 00:44:36;;;;;;;40.92;26.85;;;;;;;7.99;89.07;99106.91;4188599;28;20032;-70
2022/05/15 00:46:40;;;;;;;37.17;27.38;;;;;;;8.02;85.73;99111.72;4186354;28;20166;-70
2022/05/15 00:48:40;;;;;;;45.25;30.15;;;;;;;8.00;87.68;99113.22;4185331;28;20417;-70
2022/05/15 00:50:40;;;;;;;48.28;29.25;;;;;;;7.98;89.00;99113.56;4186694;28;20033;-70
2022/05/15 00:52:43;;;;;;;44.05;29.65;;;;;;;7.92;89.34;99117.69;4186153;28;20028;-70
2022/05/15 00:55:10;;;;;;;40.40;27.48;;;;;;;7.86;90.21;99114.41;4200731;28;20773;-70
2022/05/15 00:57:33;;;;;;;43.67;28.13;;;;;;;7.85;86.33;99111.97;4193942;28;20071;-70
2022/05/15 00:59:40;;;;;;;41.75;26.83;;;;;;;7.82;87.66;99107.16;4189950;28;20034;-70
2022/05/15 01:01:41;;;;;;;45.70;28.92;;;;;;;7.78;87.99;99111.75;4190048;28;20054;-70
2022/05/15 01:03:43;;;;;;;40.25;26.27;;;;;;;7.74;86.74;99111.63;4186705;28;20021;-70
2022/05/15 01:05:50;;;;;;;48.53;28.25;;;;;;;7.70;86.80;99109.91;4185906;28;20035;-70
2022/05/15 01:07:50;;;;;;;47.75;27.52;;;;;;;7.63;88.33;99102.22;4197833;28;20547;-70
2022/05/15 01:09:51;;;;;;;43.13;26.88;;;;;;;7.59;87.86;99112.28;4194786;28;20023;-70
2022/05/15 01:11:52;;;;;;;44.58;27.23;;;;;;;7.57;88.29;99112.66;4196504;28;20032;-70
2022/05/15 01:13:53;;;;;;;40.65;26.08;;;;;;;7.55;87.83;99105.88;4188966;28;20577;-70
2022/05/15 01:15:53;;;;;;;42.58;26.55;;;;;;;7.55;86.33;99101.16;4189152;28;20207;-70
2022/05/15 01:17:54;;;;;;;42.22;24.88;;;;;;;7.50;87.87;99104.13;4188613;28;20033;-70
2022/05/15 01:20:05;;;;;;;42.50;26.15;;;;;;;7.49;87.72;99112.75;4188556;28;20036;-70
2022/05/15 01:22:08;;;;;;;40.75;26.17;;;;;;;7.45;86.96;99101.63;4189062;28;20064;-70
2022/05/15 01:24:09;;;;;;;44.35;26.02;;;;;;;7.42;86.94;99099.53;4189228;28;20033;-70
2022/05/15 01:26:09;;;;;;;47.55;28.27;;;;;;;7.41;86.72;99113.66;4188848;28;20103;-70
2022/05/15 01:28:22;;;;;;;44.10;26.73;;;;;;;7.33;87.68;99118.09;4188525;28;20166;-70
2022/05/15 01:30:23;;;;;;;44.78;27.02;;;;;;;7.25;89.62;99116.25;4188713;28;20052;-70
2022/05/15 01:32:23;;;;;;;43.17;24.75;;;;;;;7.20;90.80;99106.28;4188658;28;20036;-70
2022/05/15 01:34:24;;;;;;;34.88;20.83;;;;;;;7.20;90.86;99110.94;4188967;28;20127;-70
2022/05/15 01:36:26;;;;;;;30.02;18.20;;;;;;;7.18;90.40;99108.53;4192357;28;20036;-70
2022/05/15 01:38:26;;;;;;;25.17;16.88;;;;;;;7.15;90.13;99109.25;4202381;28;20035;-70
2022/05/15 01:40:27;;;;;;;29.42;16.95;;;;;;;7.11;90.92;99107.50;4196817;28;20038;-70
2022/05/15 01:42:27;;;;;;;22.15;15.02;;;;;;;7.07;91.32;99106.56;4188730;28;20029;-70
2022/05/15 01:44:27;;;;;;;21.15;13.77;;;;;;;7.08;90.83;99113.69;4189543;28;20032;-70
2022/05/15 01:46:29;;;;;;;23.27;14.45;;;;;;;7.03;91.15;99112.78;4188275;28;20029;-70
2022/05/15 01:48:30;;;;;;;18.77;12.93;;;;;;;6.99;91.66;99108.28;4200473;28;20032;-69
2022/05/15 01:50:30;;;;;;;23.35;14.40;;;;;;;6.98;92.66;99110.22;4204507;28;20367;-70
2022/05/15 01:52:31;;;;;;;18.83;13.48;;;;;;;6.94;91.50;99103.78;4203648;28;20457;-70
2022/05/15 01:54:31;;;;;;;19.50;13.18;;;;;;;6.92;91.96;99114.31;4203869;28;20081;-69
2022/05/15 01:56:32;;;;;;;16.67;11.90;;;;;;;6.88;92.14;99113.41;4192147;28;20032;-69
2022/05/15 01:58:33;;;;;;;16.73;12.32;;;;;;;6.83;93.11;99110.03;4188290;28;20623;-70
2022/05/15 02:00:34;;;;;;;16.60;11.20;;;;;;;6.79;92.72;99106.38;4188799;28;20111;-70
2022/05/15 02:02:34;;;;;;;13.48;10.43;;;;;;;6.72;92.74;99099.47;4188657;28;20117;-70
2022/05/15 02:04:35;;;;;;;13.73;10.82;;;;;;;6.73;93.40;99109.31;4190241;28;20035;-68
2022/05/15 02:06:36;;;;;;;16.27;11.80;;;;;;;6.71;94.72;99102.56;4190748;28;20043;-70
2022/05/15 02:08:36;;;;;;;16.20;11.93;;;;;;;6.67;95.46;99098.84;4193574;28;20131;-70
2022/05/15 02:10:36;;;;;;;13.65;10.60;;;;;;;6.71;92.74;99106.13;4188273;28;20025;-69
2022/05/15 02:12:37;;;;;;;14.98;10.38;;;;;;;6.68;91.98;99098.50;4188081;28;20040;-69
2022/05/15 02:14:37;;;;;;;9.98;8.93;;;;;;;6.63;93.67;99096.00;4188437;28;20492;-69
2022/05/15 02:16:38;;;;;;;12.95;9.50;;;;;;;6.65;93.83;99107.44;4188071;28;20444;-69
2022/05/15 02:18:38;;;;;;;10.93;9.73;;;;;;;6.58;91.63;99112.69;4189817;28;20028;-69
2022/05/15 02:20:39;;;;;;;15.60;10.75;;;;;;;6.57;92.93;99100.06;4189588;28;20468;-69
2022/05/15 02:22:40;;;;;;;14.27;10.35;;;;;;;6.51;93.32;99111.59;4186666;28;20064;-69
2022/05/15 02:24:41;;;;;;;13.77;10.35;;;;;;;6.50;94.69;99104.50;4188521;28;20034;-69
2022/05/15 02:26:41;;;;;;;16.20;10.95;;;;;;;6.46;94.70;99107.13;4202568;28;20110;-69
2022/05/15 02:28:42;;;;;;;16.48;11.13;;;;;;;6.42;95.31;99111.69;4194236;28;20032;-69
2022/05/15 02:30:42;;;;;;;16.73;10.43;;;;;;;6.38;94.86;99106.06;4188295;28;20033;-69
2022/05/15 02:32:43;;;;;;;14.55;10.63;;;;;;;6.36;95.81;99111.06;4187756;28;20439;-69
2022/05/15 02:34:43;;;;;;;14.63;10.82;;;;;;;6.30;95.21;99106.94;4192879;28;20069;-69
2022/05/15 02:36:43;;;;;;;17.27;11.38;;;;;;;6.27;95.59;99109.53;4198813;28;20539;-69
2022/05/15 02:38:43;;;;;;;14.95;10.85;;;;;;;6.25;94.45;99100.81;4201890;28;20111;-69
2022/05/15 02:40:44;;;;;;;14.35;12.20;;;;;;;6.17;94.38;99111.53;4189231;28;20020;-69
2022/05/15 02:42:44;;;;;;;13.70;10.23;;;;;;;6.14;94.97;99112.19;4187948;28;20055;-69
2022/05/15 02:44:45;;;;;;;14.55;10.85;;;;;;;6.10;95.65;99107.69;4194335;28;20372;-69
2022/05/15 02:46:45;;;;;;;22.17;11.63;;;;;;;6.08;95.18;99101.72;4187480;28;20114;-69
2022/05/15 02:51:05;;;;;;;14.07;10.18;;;;;;;6.01;95.80;99109.69;4187548;28;20028;-69
2022/05/15 02:53:06;;;;;;;15.95;10.15;;;;;;;6.00;96.41;99110.84;4189751;28;20040;-69
2022/05/15 02:55:07;;;;;;;11.88;10.35;;;;;;;5.98;94.81;99110.38;4186885;28;20460;-69
2022/05/15 02:57:08;;;;;;;13.07;10.40;;;;;;;5.97;93.57;99112.31;4187614;28;20405;-69
2022/05/15 02:59:09;;;;;;;15.80;10.10;;;;;;;5.92;94.29;99109.75;4186486;28;20037;-69
2022/05/15 03:01:09;;;;;;;14.55;10.00;;;;;;;5.91;94.05;99106.19;4186292;28;20488;-69
2022/05/15 03:03:09;;;;;;;14.00;9.75;;;;;;;5.89;93.24;99115.88;4190008;28;20100;-69
2022/05/15 03:05:12;;;;;;;14.48;9.40;;;;;;;5.86;92.93;99114.56;4186914;28;20051;-69
2022/05/15 03:07:12;;;;;;;12.38;9.65;;;;;;;5.80;93.86;99113.19;4187538;28;20099;-69
2022/05/15 03:09:13;;;;;;;14.90;9.38;;;;;;;5.77;94.66;99110.28;4191952;28;20103;-69
2022/05/15 03:11:14;;;;;;;13.38;9.32;;;;;;;5.77;95.10;99115.75;4187733;28;20549;-69
2022/05/15 03:13:14;;;;;;;12.90;9.55;;;;;;;5.74;95.84;99116.44;4187047;28;20024;-69
2022/05/15 03:15:15;;;;;;;14.48;9.88;;;;;;;5.73;94.86;99120.31;4187443;28;20075;-69
2022/05/15 03:17:17;;;;;;;12.15;8.93;;;;;;;5.67;95.21;99116.16;4187304;28;20067;-69
2022/05/15 03:19:18;;;;;;;13.02;10.18;;;;;;;5.65;96.08;99116.47;4186061;28;20061;-69
2022/05/15 03:21:30;;;;;;;12.45;9.95;;;;;;;5.66;94.81;99112.59;4186822;28;20098;-69
2022/05/15 03:23:30;;;;;;;18.73;10.30;;;;;;;5.61;95.65;99113.56;4186823;28;20024;-69
2022/05/15 03:25:33;;;;;;;13.23;9.95;;;;;;;5.60;96.25;99117.44;4187065;28;20089;-69
2022/05/15 03:27:33;;;;;;;12.10;9.57;;;;;;;5.58;96.29;99114.25;4187464;28;20077;-69
2022/05/15 03:29:33;;;;;;;13.32;9.38;;;;;;;5.56;96.37;99124.75;4186294;28;20132;-69
2022/05/15 03:31:35;;;;;;;11.38;9.45;;;;;;;5.53;96.68;99125.38;4186933;28;20621;-69
2022/05/15 03:33:36;;;;;;;11.90;9.13;;;;;;;5.53;95.09;99121.84;4186977;28;20032;-69
2022/05/15 03:35:37;;;;;;;11.13;9.05;;;;;;;5.54;94.38;99126.19;4186891;28;20432;-69
2022/05/15 03:37:39;;;;;;;12.95;9.18;;;;;;;5.54;93.33;99123.44;4187012;28;20294;-69
2022/05/15 03:39:39;;;;;;;10.40;9.30;;;;;;;5.55;93.71;99131.38;4185933;28;20848;-69
2022/05/15 03:41:41;;;;;;;11.40;9.10;;;;;;;5.56;92.29;99124.75;4196210;28;20055;-69
2022/05/15 03:43:43;;;;;;;11.77;8.82;;;;;;;5.57;92.30;99131.84;4189028;28;20429;-69
2022/05/15 03:45:44;;;;;;;9.73;8.73;;;;;;;5.53;92.18;99130.88;4186641;28;20040;-69
2022/05/15 03:47:50;;;;;;;11.18;8.48;;;;;;;5.52;92.84;99137.50;4186863;28;20274;-69
2022/05/15 03:49:51;;;;;;;11.60;8.65;;;;;;;5.53;93.21;99130.88;4186470;28;20029;-69
2022/05/15 03:51:51;;;;;;;13.40;9.27;;;;;;;5.53;91.73;99130.06;4186025;28;20032;-69
2022/05/15 03:53:52;;;;;;;13.13;8.82;;;;;;;5.55;93.33;99130.56;4187126;28;20443;-69
2022/05/15 03:55:55;;;;;;;11.95;9.30;;;;;;;5.56;92.59;99133.00;4194400;28;20024;-69
2022/05/15 03:57:56;;;;;;;13.25;8.27;;;;;;;5.55;91.72;99125.09;4198720;28;20031;-69
2022/05/15 03:59:57;;;;;;;14.65;9.60;;;;;;;5.59;91.24;99137.81;4201372;28;20070;-69
2022/05/15 04:01:59;;;;;;;9.55;8.35;;;;;;;5.57;92.00;99136.53;4202198;28;20055;-69
2022/05/15 04:03:59;;;;;;;11.93;9.27;;;;;;;5.57;92.93;99128.28;4200521;28;20273;-69
2022/05/15 04:06:00;;;;;;;13.77;8.93;;;;;;;5.62;92.14;99144.56;4191948;28;20032;-69
2022/05/15 04:08:02;;;;;;;11.30;9.10;;;;;;;5.61;92.14;99134.72;4194302;28;20107;-69
2022/05/15 04:10:03;;;;;;;12.13;8.83;;;;;;;5.61;92.22;99132.78;4187021;28;20028;-69
2022/05/15 04:12:04;;;;;;;11.77;9.88;;;;;;;5.63;93.21;99129.75;4186473;28;20557;-69
2022/05/15 04:14:04;;;;;;;15.05;9.52;;;;;;;5.71;91.81;99139.03;4186927;28;20063;-69
2022/05/15 04:16:04;;;;;;;11.93;10.07;;;;;;;5.75;90.39;99140.81;4186611;28;20033;-69
2022/05/15 04:18:06;;;;;;;14.65;9.35;;;;;;;5.87;89.67;99138.16;4194663;28;20792;-69
2022/05/15 04:20:07;;;;;;;12.68;10.50;;;;;;;5.97;88.34;99148.03;4193111;28;20084;-69
2022/05/15 04:22:08;;;;;;;11.45;9.25;;;;;;;6.03;89.11;99140.38;4186128;28;20029;-69
2022/05/15 04:24:11;;;;;;;11.93;8.65;;;;;;;6.08;88.47;99138.25;4186838;28;20093;-69
2022/05/15 04:26:11;;;;;;;11.77;9.35;;;;;;;6.17;88.20;99138.19;4183716;28;20554;-69
2022/05/15 04:28:12;;;;;;;11.82;9.73;;;;;;;6.22;88.42;99137.22;4189587;28;20039;-69
2022/05/15 04:30:16;;;;;;;15.88;9.55;;;;;;;6.35;86.71;99136.13;4185103;28;20283;-69
2022/05/15 04:32:16;;;;;;;13.88;10.10;;;;;;;6.36;87.47;99137.75;4190048;28;20033;-69
2022/05/15 04:34:17;;;;;;;11.95;9.48;;;;;;;6.40;87.77;99139.50;4192315;28;20353;-69
2022/05/15 04:36:17;;;;;;;14.23;9.82;;;;;;;6.47;86.52;99133.47;4198767;28;20132;-69
2022/05/15 04:38:17;;;;;;;12.00;9.25;;;;;;;6.57;86.05;99133.06;4186429;28;20516;-69
2022/05/15 04:40:19;;;;;;;11.93;8.77;;;;;;;6.64;85.85;99138.84;4185594;28;20116;-69
2022/05/15 04:42:20;;;;;;;11.35;8.55;;;;;;;6.67;85.55;99148.34;4186313;28;20032;-69
2022/05/15 04:44:20;;;;;;;12.38;9.40;;;;;;;6.74;86.42;99143.94;4184675;28;20552;-69
2022/05/15 04:46:22;;;;;;;10.13;8.25;;;;;;;6.80;87.27;99140.97;4187205;28;20036;-69
2022/05/15 04:48:22;;;;;;;12.02;8.20;;;;;;;6.88;87.10;99142.84;4190515;28;20732;-69
2022/05/15 04:50:23;;;;;;;10.73;8.75;;;;;;;6.94;87.69;99147.78;4186917;28;20370;-69
2022/05/15 04:52:23;;;;;;;13.95;8.90;;;;;;;6.98;88.42;99154.25;4193493;28;20259;-69
2022/05/15 04:54:24;;;;;;;13.90;9.88;;;;;;;6.99;89.14;99144.84;4187344;28;20064;-69
2022/05/15 04:56:25;;;;;;;16.27;9.63;;;;;;;7.07;88.88;99153.34;4190373;28;20024;-69
2022/05/15 04:58:26;;;;;;;17.58;10.05;;;;;;;7.13;87.92;99152.00;4186063;28;20637;-69
2022/05/15 05:00:26;;;;;;;16.92;9.98;;;;;;;7.17;88.84;99155.69;4184362;28;20044;-69
2022/05/15 05:02:26;;;;;;;14.63;9.50;;;;;;;7.21;89.33;99159.38;4186320;28;20036;-69
2022/05/15 05:04:27;;;;;;;15.48;9.98;;;;;;;7.29;88.13;99159.28;4193031;28;20502;-69
2022/05/15 05:06:28;;;;;;;15.90;9.82;;;;;;;7.35;88.25;99162.59;4205504;28;20513;-69
2022/05/15 05:08:28;;;;;;;16.25;11.00;;;;;;;7.42;89.02;99159.31;4187934;28;20044;-69
2022/05/15 05:10:28;;;;;;;15.13;10.70;;;;;;;7.46;90.90;99166.56;4186407;28;20027;-69
2022/05/15 05:12:29;;;;;;;17.10;10.68;;;;;;;7.53;90.73;99168.72;4186963;28;20051;-69
2022/05/15 05:14:29;;;;;;;15.10;9.85;;;;;;;7.62;90.70;99165.91;4192371;28;20032;-69
2022/05/15 05:16:31;;;;;;;13.27;10.05;;;;;;;7.71;91.80;99161.09;4199944;28;20127;-69
2022/05/15 05:18:31;;;;;;;11.00;8.57;;;;;;;7.82;90.42;99165.81;4203039;28;20072;-69
2022/05/15 05:20:31;;;;;;;15.68;10.02;;;;;;;7.94;89.99;99164.19;4199819;28;20060;-69
2022/05/15 05:22:32;;;;;;;16.02;10.77;;;;;;;8.07;93.34;99157.53;4195027;28;20052;-69
2022/05/15 05:24:33;;;;;;;12.00;9.05;;;;;;;8.20;92.21;99166.63;4188602;28;20052;-69
2022/05/15 05:26:34;;;;;;;15.32;11.15;;;;;;;8.30;94.53;99166.16;4194307;28;20414;-69
2022/05/15 05:28:34;;;;;;;17.33;12.50;;;;;;;8.38;96.23;99166.06;4201848;28;20038;-69
2022/05/15 05:30:37;;;;;;;17.00;10.63;;;;;;;8.44;96.12;99163.88;4192897;28;20218;-70
2022/05/15 05:32:37;;;;;;;17.45;12.00;;;;;;;8.53;96.19;99169.25;4193936;28;20445;-69
2022/05/15 05:34:38;;;;;;;18.83;10.63;;;;;;;8.63;94.35;99172.34;4188191;28;20047;-69
2022/05/15 05:36:38;;;;;;;15.05;10.77;;;;;;;8.75;94.84;99170.69;4187847;28;20129;-69
2022/05/15 05:38:38;;;;;;;13.48;10.93;;;;;;;8.84;94.69;99185.94;4186403;28;20057;-69
2022/05/15 05:40:39;;;;;;;14.65;10.95;;;;;;;8.89;95.19;99171.91;4192895;28;20151;-69
2022/05/15 05:42:40;;;;;;;17.80;11.13;;;;;;;8.98;94.60;99186.38;4188019;28;20101;-69
2022/05/15 05:44:40;;;;;;;18.98;12.32;;;;;;;9.05;95.08;99173.94;4195191;28;20032;-69
2022/05/15 05:46:40;;;;;;;17.00;12.15;;;;;;;9.12;94.81;99180.47;4188003;28;20124;-69
2022/05/15 05:48:46;;;;;;;18.63;12.60;;;;;;;9.19;93.98;99180.69;4187053;28;20066;-69
2022/05/15 05:50:46;;;;;;;14.00;11.40;;;;;;;9.33;90.91;99182.22;4190455;28;20043;-69
2022/05/15 05:52:46;;;;;;;14.70;11.52;;;;;;;9.42;92.11;99180.09;4184889;28;20036;-69
2022/05/15 05:54:46;;;;;;;17.42;11.35;;;;;;;9.51;91.23;99176.00;4190591;28;20106;-69
2022/05/15 05:56:47;;;;;;;16.00;13.20;;;;;;;9.64;91.55;99174.00;4192051;28;20248;-69
2022/05/15 05:58:48;;;;;;;16.60;11.65;;;;;;;9.76;90.34;99179.44;4188511;28;20056;-69
2022/05/15 06:00:48;;;;;;;15.18;11.90;;;;;;;9.87;89.85;99179.72;4188011;28;20111;-69
2022/05/15 06:02:48;;;;;;;19.05;12.95;;;;;;;9.97;92.72;99176.41;4188238;28;20071;-69
2022/05/15 06:04:50;;;;;;;18.88;12.90;;;;;;;10.05;90.81;99192.00;4187937;28;20060;-70
2022/05/15 06:06:50;;;;;;;14.10;12.48;;;;;;;10.10;92.40;99182.66;4188072;28;20029;-69
2022/05/15 06:08:50;;;;;;;16.60;13.68;;;;;;;10.17;93.58;99190.31;4187423;28;20146;-70
2022/05/15 06:10:51;;;;;;;16.20;12.98;;;;;;;10.22;93.11;99188.09;4186718;28;20025;-70
2022/05/15 06:12:51;;;;;;;15.10;12.77;;;;;;;10.29;91.83;99187.47;4187495;28;20358;-70
2022/05/15 06:14:52;;;;;;;16.67;13.20;;;;;;;10.36;94.88;99187.66;4189873;28;20132;-70
2022/05/15 06:16:53;;;;;;;22.17;13.23;;;;;;;10.46;94.06;99191.84;4192365;28;20068;-70
2022/05/15 06:18:53;;;;;;;19.00;13.45;;;;;;;10.53;92.70;99192.81;4192721;28;20031;-70
2022/05/15 06:20:53;;;;;;;15.70;11.15;;;;;;;10.60;90.34;99198.50;4189653;28;20033;-70
2022/05/15 06:22:54;;;;;;;15.70;11.32;;;;;;;10.67;90.18;99184.81;4188444;28;20064;-70
2022/05/15 06:24:54;;;;;;;13.73;11.73;;;;;;;10.76;89.43;99181.84;4189037;28;20413;-70
2022/05/15 06:26:58;;;;;;;16.10;12.02;;;;;;;10.83;89.71;99187.53;4188610;28;20510;-70
2022/05/15 06:28:58;;;;;;;19.02;11.38;;;;;;;10.89;86.30;99172.22;4192689;28;20055;-70
2022/05/15 06:30:59;;;;;;;14.98;10.40;;;;;;;10.98;84.54;99183.09;4188331;28;20029;-70
2022/05/15 06:32:59;;;;;;;13.75;10.93;;;;;;;11.10;85.58;99182.97;4187116;28;20028;-70
2022/05/15 06:34:59;;;;;;;13.93;11.75;;;;;;;11.18;84.13;99176.41;4187543;28;20078;-70
2022/05/15 06:37:00;;;;;;;17.55;11.50;;;;;;;11.30;86.98;99182.94;4203806;28;20031;-70
2022/05/15 06:39:00;;;;;;;18.08;11.70;;;;;;;11.38;85.75;99181.94;4198494;28;20024;-70
2022/05/15 06:41:00;;;;;;;15.82;11.70;;;;;;;11.47;84.93;99182.50;4195103;28;20035;-70
2022/05/15 06:43:01;;;;;;;16.23;10.05;;;;;;;11.54;83.74;99175.13;4189772;28;20059;-70
2022/05/15 06:45:02;;;;;;;15.65;9.75;;;;;;;11.67;78.42;99181.31;4189960;28;20035;-70
2022/05/15 06:47:03;;;;;;;11.60;8.93;;;;;;;11.80;77.51;99176.41;4191863;28;20050;-70
2022/05/15 06:49:03;;;;;;;16.20;8.60;;;;;;;11.90;79.29;99174.97;4189341;28;20047;-70
2022/05/15 06:51:03;;;;;;;12.02;7.72;;;;;;;11.99;77.15;99181.88;4192641;28;20030;-70
2022/05/15 06:53:04;;;;;;;14.60;8.63;;;;;;;12.09;79.52;99186.03;4189620;28;20033;-70
2022/05/15 06:55:10;;;;;;;15.55;9.80;;;;;;;12.16;81.08;99169.47;4192386;28;20028;-70
2022/05/15 06:57:29;;;;;;;11.80;7.90;;;;;;;12.21;76.88;99174.72;4201851;28;20039;-70
2022/05/15 06:59:29;;;;;;;11.50;7.07;;;;;;;12.34;78.07;99170.56;4192261;28;20039;-70
2022/05/15 07:01:30;;;;;;;11.98;7.95;;;;;;;12.37;77.42;99164.28;4194394;28;20310;-70
2022/05/15 07:03:31;;;;;;;12.82;7.82;;;;;;;12.47;77.96;99165.59;4188685;28;20033;-70
2022/05/15 07:05:31;;;;;;;10.25;7.75;;;;;;;12.57;73.08;99153.84;4193795;28;20028;-70
2022/05/15 07:07:31;;;;;;;14.70;7.05;;;;;;;12.69;77.44;99154.81;4203094;28;20034;-70
2022/05/15 07:09:32;;;;;;;14.50;7.15;;;;;;;12.72;77.91;99152.06;4199565;28;20020;-70
2022/05/15 07:11:32;;;;;;;13.57;7.75;;;;;;;12.84;74.59;99160.19;4193422;28;20043;-70
2022/05/15 07:13:32;;;;;;;11.18;7.28;;;;;;;12.92;74.82;99155.53;4194675;28;20427;-70
2022/05/15 07:15:33;;;;;;;11.48;6.65;;;;;;;13.02;77.13;99154.84;4189317;28;20032;-70
2022/05/15 07:17:33;;;;;;;12.57;6.82;;;;;;;13.13;76.42;99161.31;4187725;28;20029;-70
2022/05/15 07:19:34;;;;;;;9.30;7.15;;;;;;;13.20;75.38;99157.88;4185555;28;20033;-70
2022/05/15 07:21:34;;;;;;;13.32;6.30;;;;;;;13.28;75.48;99162.34;4186995;28;20036;-70
2022/05/15 07:23:35;;;;;;;14.18;7.03;;;;;;;13.34;76.43;99154.47;4186879;28;20033;-70
2022/05/15 07:25:36;;;;;;;13.38;7.15;;;;;;;13.51;78.64;99158.63;4187074;28;20033;-70
2022/05/15 07:27:36;;;;;;;12.50;6.60;;;;;;;13.61;75.49;99163.47;4187083;28;20040;-70
2022/05/15 07:29:37;;;;;;;14.48;6.50;;;;;;;13.73;75.30;99150.09;4186121;28;20465;-70
2022/05/15 07:31:38;;;;;;;14.63;5.97;;;;;;;13.85;75.96;99156.56;4191918;28;20367;-70
2022/05/15 07:33:38;;;;;;;12.40;7.15;;;;;;;13.95;75.13;99147.50;4200840;28;20062;-70
2022/05/15 07:35:38;;;;;;;15.77;6.10;;;;;;;14.02;73.99;99151.16;4201932;28;20024;-70
2022/05/15 07:37:39;;;;;;;12.20;5.82;;;;;;;14.05;70.77;99142.03;4203179;28;20397;-70
2022/05/15 07:39:39;;;;;;;12.18;7.55;;;;;;;14.12;71.76;99146.84;4192434;28;20449;-70
2022/05/15 07:41:39;;;;;;;11.10;5.70;;;;;;;14.21;73.47;99146.53;4186636;28;20144;-70
2022/05/15 07:43:40;;;;;;;11.38;5.82;;;;;;;14.30;71.56;99156.13;4186725;28;20290;-70
2022/05/15 07:45:40;;;;;;;9.85;5.75;;;;;;;14.40;72.92;99148.25;4186783;28;20064;-70
2022/05/15 07:47:42;;;;;;;14.35;6.15;;;;;;;14.53;73.64;99138.44;4186659;28;20037;-70
2022/05/15 07:49:43;;;;;;;16.50;6.50;;;;;;;14.58;71.72;99141.66;4185766;28;20029;-70
2022/05/15 07:51:46;;;;;;;12.77;6.30;;;;;;;14.66;70.34;99152.84;4194066;28;20036;-70
2022/05/15 07:53:46;;;;;;;14.73;7.07;;;;;;;14.71;70.29;99149.66;4201432;28;20030;-70
2022/05/15 07:55:47;;;;;;;11.20;6.00;;;;;;;14.77;72.67;99143.34;4201516;28;20463;-70
2022/05/15 07:57:47;;;;;;;10.77;6.07;;;;;;;14.86;71.91;99145.78;4193891;28;20114;-71
2022/05/15 07:59:47;;;;;;;12.63;6.20;;;;;;;14.96;69.92;99147.81;4200927;28;20040;-70
2022/05/15 08:01:48;;;;;;;9.52;5.70;;;;;;;15.08;69.66;99141.09;4195687;28;20029;-70
2022/05/15 08:03:48;;;;;;;11.68;5.70;;;;;;;15.17;68.11;99144.31;4186462;28;20027;-70
2022/05/15 08:08:10;;;;;;;11.40;5.20;;;;;;;15.31;68.08;99140.78;4186421;28;20034;-70
2022/05/15 08:10:10;;;;;;;11.50;5.60;;;;;;;15.37;68.16;99133.63;4186007;28;20017;-70
2022/05/15 08:12:11;;;;;;;21.35;5.90;;;;;;;15.41;68.20;99142.81;4186439;28;20090;-70
2022/05/15 08:14:12;;;;;;;14.45;5.47;;;;;;;15.49;67.89;99136.06;4186463;28;20111;-71
2022/05/15 08:16:12;;;;;;;9.60;5.20;;;;;;;15.54;66.31;99141.22;4189542;28;20174;-71
2022/05/15 08:25:15;;;;;;;12.52;5.10;;;;;;;15.79;67.08;99135.72;4189330;28;20043;-70
2022/05/15 08:27:15;;;;;;;16.20;5.57;;;;;;;15.89;65.49;99131.38;4190380;28;20037;-70
2022/05/15 08:29:15;;;;;;;12.45;5.05;;;;;;;15.96;66.39;99132.13;4188478;28;20089;-71
2022/05/15 08:31:17;;;;;;;11.10;5.30;;;;;;;16.02;66.43;99133.34;4200725;28;20059;-70
2022/05/15 08:33:17;;;;;;;16.27;5.37;;;;;;;16.11;64.78;99129.34;4205072;28;20071;-70
2022/05/15 08:35:18;;;;;;;12.13;6.10;;;;;;;16.24;65.72;99130.56;4203108;28;20321;-71
2022/05/15 08:37:19;;;;;;;14.02;5.07;;;;;;;16.28;66.70;99120.97;4189527;28;20025;-71
2022/05/15 08:39:19;;;;;;;10.25;4.97;;;;;;;16.38;64.59;99129.72;4189060;28;20116;-71
2022/05/15 08:41:32;;;;;;;10.25;4.70;;;;;;;16.46;65.68;99120.94;4189975;28;20043;-71
2022/05/15 08:43:56;;;;;;;15.60;5.25;;;;;;;16.53;63.54;99117.34;4188645;28;20470;-71
2022/05/15 08:46:03;;;;;;;11.80;4.82;;;;;;;16.59;65.82;99112.94;4189791;28;20285;-71
2022/05/15 08:48:12;;;;;;;9.73;4.82;;;;;;;16.66;65.71;99109.34;4189121;28;20040;-71
2022/05/15 08:50:20;;;;;;;12.05;4.60;;;;;;;16.80;61.99;99104.53;4188754;28;20029;-71
2022/05/15 08:52:34;;;;;;;13.75;4.72;;;;;;;16.88;62.07;99107.28;4189299;28;20104;-71
2022/05/15 08:54:38;;;;;;;12.65;4.70;;;;;;;16.93;60.88;99107.66;4189586;28;20028;-71
2022/05/15 08:56:45;;;;;;;10.30;4.75;;;;;;;17.03;62.48;99118.00;4189367;28;20236;-71
2022/05/15 08:58:50;;;;;;;8.85;4.22;;;;;;;17.14;60.03;99109.56;4187981;28;20071;-71
2022/05/15 09:00:52;;;;;;;14.50;4.43;;;;;;;17.21;60.92;99114.31;4189358;28;20039;-71
2022/05/15 09:02:55;;;;;;;14.82;4.40;;;;;;;17.32;61.40;99110.28;4189364;28;21183;-71
2022/05/15 09:04:56;;;;;;;9.75;4.20;;;;;;;17.44;60.24;99111.00;4189356;28;20123;-71
2022/05/15 09:07:12;;;;;;;9.18;4.18;;;;;;;17.51;58.52;99113.75;4189011;28;20374;-71
2022/05/15 09:09:32;;;;;;;14.00;4.60;;;;;;;17.60;55.72;99105.69;4199075;28;20372;-71
2022/05/15 09:11:55;;;;;;;13.02;3.90;;;;;;;17.61;54.81;99099.69;4203897;28;20028;-71
2022/05/15 09:14:10;;;;;;;14.93;4.47;;;;;;;17.51;52.47;99099.78;4203695;28;20024;-71
2022/05/15 09:16:25;;;;;;;11.43;4.35;;;;;;;17.54;58.11;99099.75;4192935;28;20052;-71
2022/05/15 09:18:33;;;;;;;10.82;4.22;;;;;;;17.56;58.93;99090.97;4192528;28;20172;-71
2022/05/15 09:20:52;;;;;;;7.35;4.22;;;;;;;17.64;57.72;99104.47;4188956;28;20435;-71
2022/05/15 09:23:07;;;;;;;8.40;4.30;;;;;;;17.66;60.50;99099.25;4188302;28;20060;-71
2022/05/15 09:25:21;;;;;;;13.70;4.45;;;;;;;17.75;56.84;99098.03;4189105;28;20052;-71
2022/05/15 09:27:25;;;;;;;12.00;4.35;;;;;;;17.78;56.29;99088.81;4188427;28;20036;-71
2022/05/15 09:29:28;;;;;;;8.70;4.30;;;;;;;17.98;58.12;99094.66;4200885;28;20375;-71
2022/05/15 09:31:35;;;;;;;9.25;4.80;;;;;;;18.04;57.32;99104.19;4199152;28;20154;-71
2022/05/15 09:33:51;;;;;;;16.50;4.22;;;;;;;18.10;57.10;99086.53;4190228;28;20419;-71
2022/05/15 09:36:11;;;;;;;10.57;4.05;;;;;;;18.22;58.74;99099.25;4188534;28;20025;-71
2022/05/15 09:38:29;;;;;;;8.60;4.15;;;;;;;18.22;56.93;99093.66;4188232;28;20097;-71
2022/05/15 09:40:40;;;;;;;8.65;4.82;;;;;;;18.28;55.92;99093.97;4188896;28;20033;-71
2022/05/15 09:45:16;;;;;;;11.77;4.57;;;;;;;18.35;55.23;99093.91;4190065;28;20030;-71